Accueil
METAR-TAF:

METAR-TAF

Aéroports :

Burlington / Mount Vernon, Washington, États-Unis

latitude: 48-28-15N, longitude: 122-25-15W, altitude: 44 m

Observation

Le bulletin a été fait il y a 5 minutes, à 23:15 UTC
Vent 8 kt de sud/sud-ouest avec des rafales jusqu'à 16 kt
Température 18°C
Humidité 52%
Pression 1022 hPa
Visibilité: 16.1 km
Quelques nuages à une hauteur de 4000 ft

METAR: KBVS 262315Z AUTO 21008G16KT 10SM FEW040 18/08 A3019 RMK A01

Heure: 16:20 (23:20 UTC)


TAF: absent

Observations et prévisions météorologiques de plus de 4000 aéroports (messages METAR et TAF).

Les stations disponibles sont représentées par des disques jaunes et rouges sur la carte.

Passer la souris dessus pour voir le nom de la station.

Cliquer dessus pour voir les observations et prévisions météorologiques.

Pour changer de carte: cliquez sur les boutons verts avec une croix noire pour zoomer, sur le bouton vert avec un tiret pour effectuer un zoom arrière, ou sur les flèches vertes pour les cartes adjacentes.


METAR-TAF: